Pennock, Minnesota
Current Conditions -  °F | °C
As of 9:55 PM on Friday 19 Dec 2014 (Local Time) from KBDH Reporting Station
Haze Haze  
Wind Chill: 26°   Ceiling: 1200
Heat Index: 32°   Visibility: 5mi
Dew Point: 28°   Wind: 6mph
Humidity: 87%   Direction: 170°S
Pressure: 30.1"   Gusts: NA
Location:  45.15°N, 95.18°W
Report Text: KBDH 200355Z AUTO 17005KT 5SM BR OVC012 00/M02 A3010 RMK AO2
Loading
Personal Weather Stations






























Interactive Weather Map New forecast layout! Learn more

10-Day Weather Forecast

Advertisements
Track Severe Weather on mobile